sensor_id;sensor_type;location;lat;lon;timestamp;temperature;humidity
8994;DHT22;4532;50.886;4.700;2022-11-20T00:01:29;5.60;99.90
8994;DHT22;4532;50.886;4.700;2022-11-20T00:03:57;5.60;99.90
8994;DHT22;4532;50.886;4.700;2022-11-20T00:06:26;5.70;99.90
8994;DHT22;4532;50.886;4.700;2022-11-20T00:08:58;5.70;99.90
8994;DHT22;4532;50.886;4.700;2022-11-20T00:11:33;5.70;99.90
8994;DHT22;4532;50.886;4.700;2022-11-20T00:14:01;5.70;99.90
8994;DHT22;4532;50.886;4.700;2022-11-20T00:16:32;5.80;99.90
8994;DHT22;4532;50.886;4.700;2022-11-20T00:19:02;5.80;99.90
8994;DHT22;4532;50.886;4.700;2022-11-20T00:21:29;5.80;99.90
8994;DHT22;4532;50.886;4.700;2022-11-20T00:23:57;5.80;99.90
8994;DHT22;4532;50.886;4.700;2022-11-20T00:26:27;5.80;99.90
8994;DHT22;4532;50.886;4.700;2022-11-20T00:28:57;5.80;99.90
8994;DHT22;4532;50.886;4.700;2022-11-20T00:31:25;5.80;99.90
8994;DHT22;4532;50.886;4.700;2022-11-20T00:33:52;5.80;99.90
8994;DHT22;4532;50.886;4.700;2022-11-20T00:36:24;5.80;99.90
8994;DHT22;4532;50.886;4.700;2022-11-20T00:38:53;5.80;99.90
8994;DHT22;4532;50.886;4.700;2022-11-20T00:41:23;5.80;99.90
8994;DHT22;4532;50.886;4.700;2022-11-20T00:43:56;5.80;99.90
8994;DHT22;4532;50.886;4.700;2022-11-20T00:46:29;5.80;99.90
8994;DHT22;4532;50.886;4.700;2022-11-20T00:48:58;5.90;99.90
8994;DHT22;4532;50.886;4.700;2022-11-20T00:51:28;5.90;99.90
8994;DHT22;4532;50.886;4.700;2022-11-20T00:53:57;5.90;99.90
8994;DHT22;4532;50.886;4.700;2022-11-20T00:56:25;5.90;99.90
8994;DHT22;4532;50.886;4.700;2022-11-20T00:58:53;5.90;99.90
8994;DHT22;4532;50.886;4.700;2022-11-20T01:01:24;5.90;99.90
8994;DHT22;4532;50.886;4.700;2022-11-20T01:03:54;6.00;99.90
8994;DHT22;4532;50.886;4.700;2022-11-20T01:06:48;6.00;99.90
8994;DHT22;4532;50.886;4.700;2022-11-20T01:09:17;6.00;99.90
8994;DHT22;4532;50.886;4.700;2022-11-20T01:11:49;6.00;99.90
8994;DHT22;4532;50.886;4.700;2022-11-20T01:14:19;6.10;99.90
8994;DHT22;4532;50.886;4.700;2022-11-20T01:16:49;6.10;99.90
8994;DHT22;4532;50.886;4.700;2022-11-20T01:19:24;6.10;99.90
8994;DHT22;4532;50.886;4.700;2022-11-20T01:21:53;6.00;99.90
8994;DHT22;4532;50.886;4.700;2022-11-20T01:24:22;6.00;99.90
8994;DHT22;4532;50.886;4.700;2022-11-20T01:26:50;6.00;99.90
8994;DHT22;4532;50.886;4.700;2022-11-20T01:29:22;6.00;99.90
8994;DHT22;4532;50.886;4.700;2022-11-20T01:31:50;6.00;99.90
8994;DHT22;4532;50.886;4.700;2022-11-20T01:34:24;6.00;99.90
8994;DHT22;4532;50.886;4.700;2022-11-20T01:36:56;6.00;99.90
8994;DHT22;4532;50.886;4.700;2022-11-20T01:39:24;6.10;99.90
8994;DHT22;4532;50.886;4.700;2022-11-20T01:41:55;6.10;99.90
8994;DHT22;4532;50.886;4.700;2022-11-20T01:44:59;6.10;99.90
8994;DHT22;4532;50.886;4.700;2022-11-20T01:47:36;6.20;99.90
8994;DHT22;4532;50.886;4.700;2022-11-20T01:50:25;6.20;99.90
8994;DHT22;4532;50.886;4.700;2022-11-20T01:53:05;6.20;99.90
8994;DHT22;4532;50.886;4.700;2022-11-20T01:55:39;6.20;99.90
8994;DHT22;4532;50.886;4.700;2022-11-20T01:58:08;6.20;99.90
8994;DHT22;4532;50.886;4.700;2022-11-20T02:00:40;6.20;99.90
8994;DHT22;4532;50.886;4.700;2022-11-20T02:03:15;6.20;99.90
8994;DHT22;4532;50.886;4.700;2022-11-20T02:08:30;6.30;99.90
8994;DHT22;4532;50.886;4.700;2022-11-20T02:11:00;6.30;99.90
8994;DHT22;4532;50.886;4.700;2022-11-20T02:13:30;6.30;99.90
8994;DHT22;4532;50.886;4.700;2022-11-20T02:16:21;6.30;99.90
8994;DHT22;4532;50.886;4.700;2022-11-20T02:18:50;6.30;99.90
8994;DHT22;4532;50.886;4.700;2022-11-20T02:21:34;6.30;99.90
8994;DHT22;4532;50.886;4.700;2022-11-20T02:27:04;6.20;99.90
8994;DHT22;4532;50.886;4.700;2022-11-20T02:29:51;6.20;99.90
8994;DHT22;4532;50.886;4.700;2022-11-20T02:32:26;6.20;99.90
8994;DHT22;4532;50.886;4.700;2022-11-20T02:34:54;6.20;99.90
8994;DHT22;4532;50.886;4.700;2022-11-20T02:37:22;6.20;99.90
8994;DHT22;4532;50.886;4.700;2022-11-20T02:39:51;6.20;99.90
8994;DHT22;4532;50.886;4.700;2022-11-20T02:42:21;6.20;99.90
8994;DHT22;4532;50.886;4.700;2022-11-20T02:44:55;6.20;99.90
8994;DHT22;4532;50.886;4.700;2022-11-20T02:47:24;6.30;99.90
8994;DHT22;4532;50.886;4.700;2022-11-20T02:49:51;6.30;99.90
8994;DHT22;4532;50.886;4.700;2022-11-20T02:52:21;6.30;99.90
8994;DHT22;4532;50.886;4.700;2022-11-20T02:54:48;6.30;99.90
8994;DHT22;4532;50.886;4.700;2022-11-20T02:57:15;6.30;99.90
8994;DHT22;4532;50.886;4.700;2022-11-20T02:59:42;6.30;99.90
8994;DHT22;4532;50.886;4.700;2022-11-20T03:02:12;6.30;99.90
8994;DHT22;4532;50.886;4.700;2022-11-20T03:04:41;6.30;99.90
8994;DHT22;4532;50.886;4.700;2022-11-20T03:07:09;6.40;99.90
8994;DHT22;4532;50.886;4.700;2022-11-20T03:09:41;6.30;99.90
8994;DHT22;4532;50.886;4.700;2022-11-20T03:12:08;6.40;99.90
8994;DHT22;4532;50.886;4.700;2022-11-20T03:14:35;6.40;99.90
8994;DHT22;4532;50.886;4.700;2022-11-20T03:17:02;6.40;99.90
8994;DHT22;4532;50.886;4.700;2022-11-20T03:19:29;6.40;99.90
8994;DHT22;4532;50.886;4.700;2022-11-20T03:21:57;6.40;99.90
8994;DHT22;4532;50.886;4.700;2022-11-20T03:24:26;6.40;99.90
8994;DHT22;4532;50.886;4.700;2022-11-20T03:26:55;6.40;99.90
8994;DHT22;4532;50.886;4.700;2022-11-20T03:29:22;6.40;99.90
8994;DHT22;4532;50.886;4.700;2022-11-20T03:31:52;6.30;99.90
8994;DHT22;4532;50.886;4.700;2022-11-20T03:34:21;6.30;99.90
8994;DHT22;4532;50.886;4.700;2022-11-20T03:36:50;6.30;99.90
8994;DHT22;4532;50.886;4.700;2022-11-20T03:39:22;6.30;99.90
8994;DHT22;4532;50.886;4.700;2022-11-20T03:41:52;6.40;99.90
8994;DHT22;4532;50.886;4.700;2022-11-20T03:44:21;6.40;99.90
8994;DHT22;4532;50.886;4.700;2022-11-20T03:46:51;6.40;99.90
8994;DHT22;4532;50.886;4.700;2022-11-20T03:49:18;6.40;99.90
8994;DHT22;4532;50.886;4.700;2022-11-20T03:51:46;6.40;99.90
8994;DHT22;4532;50.886;4.700;2022-11-20T03:54:16;6.40;99.90
8994;DHT22;4532;50.886;4.700;2022-11-20T03:56:43;6.40;99.90
8994;DHT22;4532;50.886;4.700;2022-11-20T03:59:10;6.50;99.90
8994;DHT22;4532;50.886;4.700;2022-11-20T04:01:38;6.50;99.90
8994;DHT22;4532;50.886;4.700;2022-11-20T04:04:16;6.50;99.90
8994;DHT22;4532;50.886;4.700;2022-11-20T04:06:43;6.50;99.90
8994;DHT22;4532;50.886;4.700;2022-11-20T04:09:13;6.40;99.90
8994;DHT22;4532;50.886;4.700;2022-11-20T04:11:40;6.40;99.90
8994;DHT22;4532;50.886;4.700;2022-11-20T04:14:13;6.40;99.90
8994;DHT22;4532;50.886;4.700;2022-11-20T04:16:40;6.40;99.90
8994;DHT22;4532;50.886;4.700;2022-11-20T04:19:14;6.40;99.90
8994;DHT22;4532;50.886;4.700;2022-11-20T04:21:47;6.40;99.90
8994;DHT22;4532;50.886;4.700;2022-11-20T04:24:16;6.40;99.90
8994;DHT22;4532;50.886;4.700;2022-11-20T04:26:47;6.40;99.90
8994;DHT22;4532;50.886;4.700;2022-11-20T04:29:15;6.40;99.90
8994;DHT22;4532;50.886;4.700;2022-11-20T04:31:46;6.40;99.90
8994;DHT22;4532;50.886;4.700;2022-11-20T04:34:17;6.30;99.90
8994;DHT22;4532;50.886;4.700;2022-11-20T04:36:49;6.30;99.90
8994;DHT22;4532;50.886;4.700;2022-11-20T04:39:16;6.30;99.90
8994;DHT22;4532;50.886;4.700;2022-11-20T04:41:46;6.30;99.90
8994;DHT22;4532;50.886;4.700;2022-11-20T04:44:15;6.30;99.90
8994;DHT22;4532;50.886;4.700;2022-11-20T04:46:48;6.30;99.90
8994;DHT22;4532;50.886;4.700;2022-11-20T04:49:15;6.20;99.90
8994;DHT22;4532;50.886;4.700;2022-11-20T04:51:42;6.20;99.90
8994;DHT22;4532;50.886;4.700;2022-11-20T04:54:11;6.30;99.90
8994;DHT22;4532;50.886;4.700;2022-11-20T04:56:40;6.20;99.90
8994;DHT22;4532;50.886;4.700;2022-11-20T04:59:09;6.20;99.90
8994;DHT22;4532;50.886;4.700;2022-11-20T05:01:39;6.20;99.90
8994;DHT22;4532;50.886;4.700;2022-11-20T05:04:09;6.20;99.90
8994;DHT22;4532;50.886;4.700;2022-11-20T05:06:38;6.20;99.90
8994;DHT22;4532;50.886;4.700;2022-11-20T05:09:07;6.20;99.90
8994;DHT22;4532;50.886;4.700;2022-11-20T05:11:37;6.20;99.90
8994;DHT22;4532;50.886;4.700;2022-11-20T05:14:06;6.20;99.90
8994;DHT22;4532;50.886;4.700;2022-11-20T05:16:34;6.20;99.90
8994;DHT22;4532;50.886;4.700;2022-11-20T05:19:03;6.10;99.90
8994;DHT22;4532;50.886;4.700;2022-11-20T05:21:31;6.10;99.90
8994;DHT22;4532;50.886;4.700;2022-11-20T05:23:59;6.10;99.90
8994;DHT22;4532;50.886;4.700;2022-11-20T05:26:28;6.10;99.90
8994;DHT22;4532;50.886;4.700;2022-11-20T05:28:55;6.10;99.90
8994;DHT22;4532;50.886;4.700;2022-11-20T05:31:27;6.20;99.90
8994;DHT22;4532;50.886;4.700;2022-11-20T05:33:57;6.20;99.90
8994;DHT22;4532;50.886;4.700;2022-11-20T05:36:24;6.20;99.90
8994;DHT22;4532;50.886;4.700;2022-11-20T05:38:51;6.20;99.90
8994;DHT22;4532;50.886;4.700;2022-11-20T05:41:25;6.20;99.90
8994;DHT22;4532;50.886;4.700;2022-11-20T05:43:55;6.20;99.90
8994;DHT22;4532;50.886;4.700;2022-11-20T05:46:25;6.30;99.90
8994;DHT22;4532;50.886;4.700;2022-11-20T05:48:57;6.30;99.90
8994;DHT22;4532;50.886;4.700;2022-11-20T05:51:26;6.30;99.90
8994;DHT22;4532;50.886;4.700;2022-11-20T05:53:58;6.30;99.90
8994;DHT22;4532;50.886;4.700;2022-11-20T05:56:28;6.40;99.90
8994;DHT22;4532;50.886;4.700;2022-11-20T05:58:56;6.30;99.90
8994;DHT22;4532;50.886;4.700;2022-11-20T06:01:27;6.40;99.90
8994;DHT22;4532;50.886;4.700;2022-11-20T06:03:54;6.40;99.90
8994;DHT22;4532;50.886;4.700;2022-11-20T06:06:24;6.40;99.90
8994;DHT22;4532;50.886;4.700;2022-11-20T06:08:54;6.40;99.90
8994;DHT22;4532;50.886;4.700;2022-11-20T06:11:25;6.40;99.90
8994;DHT22;4532;50.886;4.700;2022-11-20T06:13:52;6.40;99.90
8994;DHT22;4532;50.886;4.700;2022-11-20T06:16:29;6.40;99.90
8994;DHT22;4532;50.886;4.700;2022-11-20T06:18:58;6.40;99.90
8994;DHT22;4532;50.886;4.700;2022-11-20T06:21:25;6.40;99.90
8994;DHT22;4532;50.886;4.700;2022-11-20T06:23:53;6.40;99.90
8994;DHT22;4532;50.886;4.700;2022-11-20T06:26:25;6.50;99.90
8994;DHT22;4532;50.886;4.700;2022-11-20T06:28:54;6.50;99.90
8994;DHT22;4532;50.886;4.700;2022-11-20T06:31:26;6.50;99.90
8994;DHT22;4532;50.886;4.700;2022-11-20T06:33:55;6.50;99.90
8994;DHT22;4532;50.886;4.700;2022-11-20T06:36:27;6.50;99.90
8994;DHT22;4532;50.886;4.700;2022-11-20T06:38:54;6.50;99.90
8994;DHT22;4532;50.886;4.700;2022-11-20T06:41:21;6.50;99.90
8994;DHT22;4532;50.886;4.700;2022-11-20T06:43:51;6.50;99.90
8994;DHT22;4532;50.886;4.700;2022-11-20T06:46:19;6.50;99.90
8994;DHT22;4532;50.886;4.700;2022-11-20T06:48:48;6.50;99.90
8994;DHT22;4532;50.886;4.700;2022-11-20T06:51:15;6.60;99.90
8994;DHT22;4532;50.886;4.700;2022-11-20T06:53:43;6.60;99.90
8994;DHT22;4532;50.886;4.700;2022-11-20T06:56:12;6.60;99.90
8994;DHT22;4532;50.886;4.700;2022-11-20T06:58:42;6.60;99.90
8994;DHT22;4532;50.886;4.700;2022-11-20T07:01:13;6.60;99.90
8994;DHT22;4532;50.886;4.700;2022-11-20T07:03:42;6.60;99.90
8994;DHT22;4532;50.886;4.700;2022-11-20T07:06:10;6.60;99.90
8994;DHT22;4532;50.886;4.700;2022-11-20T07:08:40;6.60;99.90
8994;DHT22;4532;50.886;4.700;2022-11-20T07:11:11;6.60;99.90
8994;DHT22;4532;50.886;4.700;2022-11-20T07:13:38;6.60;99.90
8994;DHT22;4532;50.886;4.700;2022-11-20T07:16:07;6.70;99.90
8994;DHT22;4532;50.886;4.700;2022-11-20T07:18:39;6.70;99.90
8994;DHT22;4532;50.886;4.700;2022-11-20T07:21:10;6.70;99.90
8994;DHT22;4532;50.886;4.700;2022-11-20T07:23:37;6.70;99.90
8994;DHT22;4532;50.886;4.700;2022-11-20T07:26:10;6.70;99.90
8994;DHT22;4532;50.886;4.700;2022-11-20T07:28:38;6.70;99.90
8994;DHT22;4532;50.886;4.700;2022-11-20T07:31:07;6.70;99.90
8994;DHT22;4532;50.886;4.700;2022-11-20T07:33:37;6.70;99.90
8994;DHT22;4532;50.886;4.700;2022-11-20T07:36:04;6.70;99.90
8994;DHT22;4532;50.886;4.700;2022-11-20T07:38:34;6.80;99.90
8994;DHT22;4532;50.886;4.700;2022-11-20T07:41:04;6.80;99.90
8994;DHT22;4532;50.886;4.700;2022-11-20T07:43:31;6.80;99.90
8994;DHT22;4532;50.886;4.700;2022-11-20T07:46:05;6.80;99.90
8994;DHT22;4532;50.886;4.700;2022-11-20T07:48:35;6.80;99.90
8994;DHT22;4532;50.886;4.700;2022-11-20T07:51:05;6.90;99.90
8994;DHT22;4532;50.886;4.700;2022-11-20T07:53:37;6.90;99.90
8994;DHT22;4532;50.886;4.700;2022-11-20T07:56:04;6.90;99.90
8994;DHT22;4532;50.886;4.700;2022-11-20T07:58:34;6.90;99.90
8994;DHT22;4532;50.886;4.700;2022-11-20T08:01:06;6.90;99.90
8994;DHT22;4532;50.886;4.700;2022-11-20T08:03:36;7.00;99.90
8994;DHT22;4532;50.886;4.700;2022-11-20T08:06:04;7.00;99.90
8994;DHT22;4532;50.886;4.700;2022-11-20T08:08:32;7.00;99.90
8994;DHT22;4532;50.886;4.700;2022-11-20T08:11:01;7.00;99.90
8994;DHT22;4532;50.886;4.700;2022-11-20T08:13:47;7.10;99.90
8994;DHT22;4532;50.886;4.700;2022-11-20T08:16:35;7.10;99.90
8994;DHT22;4532;50.886;4.700;2022-11-20T08:19:02;7.10;99.90
8994;DHT22;4532;50.886;4.700;2022-11-20T08:21:30;7.10;99.90
8994;DHT22;4532;50.886;4.700;2022-11-20T08:24:07;7.20;99.90
8994;DHT22;4532;50.886;4.700;2022-11-20T08:26:40;7.20;99.90
8994;DHT22;4532;50.886;4.700;2022-11-20T08:29:09;7.30;99.90
8994;DHT22;4532;50.886;4.700;2022-11-20T08:31:39;7.30;99.90
8994;DHT22;4532;50.886;4.700;2022-11-20T08:34:06;7.30;99.90
8994;DHT22;4532;50.886;4.700;2022-11-20T08:36:43;7.40;99.90
8994;DHT22;4532;50.886;4.700;2022-11-20T08:39:15;7.40;99.90
8994;DHT22;4532;50.886;4.700;2022-11-20T08:41:44;7.50;99.90
8994;DHT22;4532;50.886;4.700;2022-11-20T08:44:16;7.50;99.90
8994;DHT22;4532;50.886;4.700;2022-11-20T08:46:46;7.50;99.90
8994;DHT22;4532;50.886;4.700;2022-11-20T08:49:14;7.50;99.90
8994;DHT22;4532;50.886;4.700;2022-11-20T08:51:42;7.50;99.90
8994;DHT22;4532;50.886;4.700;2022-11-20T08:54:11;7.60;99.90
8994;DHT22;4532;50.886;4.700;2022-11-20T08:56:39;7.60;99.90
8994;DHT22;4532;50.886;4.700;2022-11-20T08:59:08;7.70;99.90
8994;DHT22;4532;50.886;4.700;2022-11-20T09:01:56;7.80;99.90
8994;DHT22;4532;50.886;4.700;2022-11-20T09:04:27;7.80;99.90
8994;DHT22;4532;50.886;4.700;2022-11-20T09:06:55;7.80;99.90
8994;DHT22;4532;50.886;4.700;2022-11-20T09:09:24;7.80;99.90
8994;DHT22;4532;50.886;4.700;2022-11-20T09:11:53;7.90;99.90
8994;DHT22;4532;50.886;4.700;2022-11-20T09:14:21;7.90;99.90
8994;DHT22;4532;50.886;4.700;2022-11-20T09:16:48;7.90;99.90
8994;DHT22;4532;50.886;4.700;2022-11-20T09:19:15;8.00;99.90
8994;DHT22;4532;50.886;4.700;2022-11-20T09:22:05;8.00;99.90
8994;DHT22;4532;50.886;4.700;2022-11-20T09:24:32;8.10;99.90
8994;DHT22;4532;50.886;4.700;2022-11-20T09:27:02;8.10;99.90
8994;DHT22;4532;50.886;4.700;2022-11-20T09:29:34;8.20;99.90
8994;DHT22;4532;50.886;4.700;2022-11-20T09:32:01;8.20;99.90
8994;DHT22;4532;50.886;4.700;2022-11-20T09:34:29;8.30;99.90
8994;DHT22;4532;50.886;4.700;2022-11-20T09:36:56;8.40;99.90
8994;DHT22;4532;50.886;4.700;2022-11-20T09:39:31;8.40;99.90
8994;DHT22;4532;50.886;4.700;2022-11-20T09:50:37;8.60;99.90
8994;DHT22;4532;50.886;4.700;2022-11-20T09:53:12;8.60;99.90
8994;DHT22;4532;50.886;4.700;2022-11-20T09:55:42;8.60;99.90
8994;DHT22;4532;50.886;4.700;2022-11-20T10:01:23;8.70;99.90
8994;DHT22;4532;50.886;4.700;2022-11-20T10:06:34;8.80;99.90
8994;DHT22;4532;50.886;4.700;2022-11-20T10:17:53;9.00;99.90
8994;DHT22;4532;50.886;4.700;2022-11-20T10:25:59;9.20;99.90
8994;DHT22;4532;50.886;4.700;2022-11-20T10:31:33;9.30;99.90
8994;DHT22;4532;50.886;4.700;2022-11-20T10:34:11;9.30;99.90
8994;DHT22;4532;50.886;4.700;2022-11-20T10:37:18;9.40;99.90
8994;DHT22;4532;50.886;4.700;2022-11-20T10:43:13;9.50;99.90
8994;DHT22;4532;50.886;4.700;2022-11-20T10:45:59;9.50;99.90
8994;DHT22;4532;50.886;4.700;2022-11-20T10:48:29;9.60;99.90
8994;DHT22;4532;50.886;4.700;2022-11-20T10:57:17;9.70;99.90
8994;DHT22;4532;50.886;4.700;2022-11-20T11:02:56;9.80;99.90
8994;DHT22;4532;50.886;4.700;2022-11-20T11:08:12;10.00;99.90
8994;DHT22;4532;50.886;4.700;2022-11-20T11:10:51;10.00;99.90
8994;DHT22;4532;50.886;4.700;2022-11-20T11:13:21;10.10;99.90
8994;DHT22;4532;50.886;4.700;2022-11-20T11:15:52;10.10;99.90
8994;DHT22;4532;50.886;4.700;2022-11-20T11:18:28;10.20;99.90
8994;DHT22;4532;50.886;4.700;2022-11-20T11:21:01;10.30;99.90
8994;DHT22;4532;50.886;4.700;2022-11-20T11:23:46;10.30;99.90
8994;DHT22;4532;50.886;4.700;2022-11-20T11:26:22;10.40;99.90
8994;DHT22;4532;50.886;4.700;2022-11-20T11:28:59;10.50;99.90
8994;DHT22;4532;50.886;4.700;2022-11-20T11:31:31;10.50;99.90
8994;DHT22;4532;50.886;4.700;2022-11-20T11:34:12;10.50;99.90
8994;DHT22;4532;50.886;4.700;2022-11-20T11:36:40;10.60;99.90
8994;DHT22;4532;50.886;4.700;2022-11-20T11:39:27;10.60;99.90
8994;DHT22;4532;50.886;4.700;2022-11-20T11:41:55;10.60;99.90
8994;DHT22;4532;50.886;4.700;2022-11-20T11:44:33;10.60;99.90
8994;DHT22;4532;50.886;4.700;2022-11-20T11:47:30;10.70;99.90
8994;DHT22;4532;50.886;4.700;2022-11-20T11:55:40;10.80;99.90
8994;DHT22;4532;50.886;4.700;2022-11-20T12:03:37;10.80;99.90
8994;DHT22;4532;50.886;4.700;2022-11-20T12:06:18;10.80;99.90
8994;DHT22;4532;50.886;4.700;2022-11-20T12:08:49;10.80;99.90
8994;DHT22;4532;50.886;4.700;2022-11-20T12:16:55;10.90;99.90
8994;DHT22;4532;50.886;4.700;2022-11-20T12:19:24;10.90;99.90
8994;DHT22;4532;50.886;4.700;2022-11-20T12:30:16;10.90;99.90
8994;DHT22;4532;50.886;4.700;2022-11-20T12:33:08;10.90;99.90
8994;DHT22;4532;50.886;4.700;2022-11-20T12:38:29;10.80;99.90
8994;DHT22;4532;50.886;4.700;2022-11-20T12:44:52;10.80;99.90
8994;DHT22;4532;50.886;4.700;2022-11-20T12:50:27;10.70;99.90
8994;DHT22;4532;50.886;4.700;2022-11-20T12:53:16;10.70;99.90
8994;DHT22;4532;50.886;4.700;2022-11-20T12:56:21;10.70;99.90
8994;DHT22;4532;50.886;4.700;2022-11-20T13:07:06;10.60;99.90
8994;DHT22;4532;50.886;4.700;2022-11-20T13:09:45;10.60;99.90
8994;DHT22;4532;50.886;4.700;2022-11-20T13:12:25;10.60;99.90
8994;DHT22;4532;50.886;4.700;2022-11-20T13:17:52;10.60;99.90
8994;DHT22;4532;50.886;4.700;2022-11-20T13:20:33;10.60;99.90
8994;DHT22;4532;50.886;4.700;2022-11-20T13:23:06;10.60;99.90
8994;DHT22;4532;50.886;4.700;2022-11-20T13:25:36;10.60;99.90
8994;DHT22;4532;50.886;4.700;2022-11-20T13:30:50;10.60;99.90
8994;DHT22;4532;50.886;4.700;2022-11-20T13:36:22;10.60;99.90
8994;DHT22;4532;50.886;4.700;2022-11-20T13:38:51;10.60;99.90
8994;DHT22;4532;50.886;4.700;2022-11-20T13:41:29;10.60;99.90
8994;DHT22;4532;50.886;4.700;2022-11-20T13:46:42;10.60;99.90
8994;DHT22;4532;50.886;4.700;2022-11-20T13:51:51;10.60;99.90
8994;DHT22;4532;50.886;4.700;2022-11-20T14:00:25;10.60;99.90
8994;DHT22;4532;50.886;4.700;2022-11-20T14:05:54;10.60;99.90
8994;DHT22;4532;50.886;4.700;2022-11-20T14:08:45;10.60;99.90
8994;DHT22;4532;50.886;4.700;2022-11-20T14:11:21;10.60;99.90
8994;DHT22;4532;50.886;4.700;2022-11-20T14:13:54;10.60;99.90
8994;DHT22;4532;50.886;4.700;2022-11-20T14:16:28;10.60;99.90
8994;DHT22;4532;50.886;4.700;2022-11-20T14:19:16;10.60;99.90
8994;DHT22;4532;50.886;4.700;2022-11-20T14:21:49;10.60;99.90
8994;DHT22;4532;50.886;4.700;2022-11-20T14:24:26;10.60;99.90
8994;DHT22;4532;50.886;4.700;2022-11-20T14:26:55;10.60;99.90
8994;DHT22;4532;50.886;4.700;2022-11-20T14:29:28;10.60;99.90
8994;DHT22;4532;50.886;4.700;2022-11-20T14:31:58;10.60;99.90
8994;DHT22;4532;50.886;4.700;2022-11-20T14:34:30;10.60;99.90
8994;DHT22;4532;50.886;4.700;2022-11-20T14:37:05;10.50;99.90
8994;DHT22;4532;50.886;4.700;2022-11-20T14:39:48;10.50;99.90
8994;DHT22;4532;50.886;4.700;2022-11-20T14:42:26;10.50;99.90
8994;DHT22;4532;50.886;4.700;2022-11-20T14:44:59;10.50;99.90
8994;DHT22;4532;50.886;4.700;2022-11-20T14:47:31;10.60;99.90
8994;DHT22;4532;50.886;4.700;2022-11-20T14:50:01;10.50;99.90
8994;DHT22;4532;50.886;4.700;2022-11-20T14:52:39;10.50;99.90
8994;DHT22;4532;50.886;4.700;2022-11-20T14:55:32;10.50;99.90
8994;DHT22;4532;50.886;4.700;2022-11-20T14:58:06;10.50;99.90
8994;DHT22;4532;50.886;4.700;2022-11-20T15:00:58;10.50;99.90
8994;DHT22;4532;50.886;4.700;2022-11-20T15:03:32;10.50;99.90
8994;DHT22;4532;50.886;4.700;2022-11-20T15:06:07;10.50;99.90
8994;DHT22;4532;50.886;4.700;2022-11-20T15:08:34;10.50;99.90
8994;DHT22;4532;50.886;4.700;2022-11-20T15:11:02;10.50;99.90
8994;DHT22;4532;50.886;4.700;2022-11-20T15:13:32;10.50;99.90
8994;DHT22;4532;50.886;4.700;2022-11-20T15:16:01;10.50;99.90
8994;DHT22;4532;50.886;4.700;2022-11-20T15:18:39;10.50;99.90
8994;DHT22;4532;50.886;4.700;2022-11-20T15:21:12;10.50;99.90
8994;DHT22;4532;50.886;4.700;2022-11-20T15:23:42;10.50;99.90
8994;DHT22;4532;50.886;4.700;2022-11-20T15:26:12;10.50;99.90
8994;DHT22;4532;50.886;4.700;2022-11-20T15:28:46;10.50;99.90
8994;DHT22;4532;50.886;4.700;2022-11-20T15:31:19;10.60;99.90
8994;DHT22;4532;50.886;4.700;2022-11-20T15:33:47;10.60;99.90
8994;DHT22;4532;50.886;4.700;2022-11-20T15:36:17;10.60;99.90
8994;DHT22;4532;50.886;4.700;2022-11-20T15:38:44;10.60;99.90
8994;DHT22;4532;50.886;4.700;2022-11-20T15:41:11;10.60;99.90
8994;DHT22;4532;50.886;4.700;2022-11-20T15:43:39;10.70;99.90
8994;DHT22;4532;50.886;4.700;2022-11-20T15:46:19;10.60;99.90
8994;DHT22;4532;50.886;4.700;2022-11-20T15:48:57;10.60;99.90
8994;DHT22;4532;50.886;4.700;2022-11-20T15:51:29;10.70;99.90
8994;DHT22;4532;50.886;4.700;2022-11-20T15:53:59;10.70;99.90
8994;DHT22;4532;50.886;4.700;2022-11-20T15:56:26;10.70;99.90
8994;DHT22;4532;50.886;4.700;2022-11-20T15:58:53;10.70;99.90
8994;DHT22;4532;50.886;4.700;2022-11-20T16:01:23;10.80;99.90
8994;DHT22;4532;50.886;4.700;2022-11-20T16:03:50;10.70;99.90
8994;DHT22;4532;50.886;4.700;2022-11-20T16:06:17;10.70;99.90
8994;DHT22;4532;50.886;4.700;2022-11-20T16:08:47;10.70;99.90
8994;DHT22;4532;50.886;4.700;2022-11-20T16:11:17;10.70;99.90
8994;DHT22;4532;50.886;4.700;2022-11-20T16:13:52;10.80;99.90
8994;DHT22;4532;50.886;4.700;2022-11-20T16:16:40;10.70;99.90
8994;DHT22;4532;50.886;4.700;2022-11-20T16:19:16;10.70;99.90
8994;DHT22;4532;50.886;4.700;2022-11-20T16:21:44;10.70;99.90
8994;DHT22;4532;50.886;4.700;2022-11-20T16:24:13;10.60;99.90
8994;DHT22;4532;50.886;4.700;2022-11-20T16:26:43;10.60;99.90
8994;DHT22;4532;50.886;4.700;2022-11-20T16:29:10;10.70;99.90
8994;DHT22;4532;50.886;4.700;2022-11-20T16:31:38;10.70;99.90
8994;DHT22;4532;50.886;4.700;2022-11-20T16:34:07;10.60;99.90
8994;DHT22;4532;50.886;4.700;2022-11-20T16:36:41;10.70;99.90
8994;DHT22;4532;50.886;4.700;2022-11-20T16:39:11;10.60;99.90
8994;DHT22;4532;50.886;4.700;2022-11-20T16:41:38;10.60;99.90
8994;DHT22;4532;50.886;4.700;2022-11-20T16:44:08;10.60;99.90
8994;DHT22;4532;50.886;4.700;2022-11-20T16:46:38;10.60;99.90
8994;DHT22;4532;50.886;4.700;2022-11-20T16:49:17;10.60;99.90
8994;DHT22;4532;50.886;4.700;2022-11-20T16:51:49;10.60;99.90
8994;DHT22;4532;50.886;4.700;2022-11-20T16:54:17;10.60;99.90
8994;DHT22;4532;50.886;4.700;2022-11-20T16:56:47;10.60;99.90
8994;DHT22;4532;50.886;4.700;2022-11-20T16:59:18;10.60;99.90
8994;DHT22;4532;50.886;4.700;2022-11-20T17:01:47;10.60;99.90
8994;DHT22;4532;50.886;4.700;2022-11-20T17:04:17;10.60;99.90
8994;DHT22;4532;50.886;4.700;2022-11-20T17:06:48;10.70;99.90
8994;DHT22;4532;50.886;4.700;2022-11-20T17:09:16;10.70;99.90
8994;DHT22;4532;50.886;4.700;2022-11-20T17:11:47;10.70;99.90
8994;DHT22;4532;50.886;4.700;2022-11-20T17:14:19;10.80;99.90
8994;DHT22;4532;50.886;4.700;2022-11-20T17:16:47;10.70;99.90
8994;DHT22;4532;50.886;4.700;2022-11-20T17:19:15;10.70;99.90
8994;DHT22;4532;50.886;4.700;2022-11-20T17:21:42;10.80;99.90
8994;DHT22;4532;50.886;4.700;2022-11-20T17:24:11;10.80;99.90
8994;DHT22;4532;50.886;4.700;2022-11-20T17:26:42;10.80;99.90
8994;DHT22;4532;50.886;4.700;2022-11-20T17:29:17;10.80;99.90
8994;DHT22;4532;50.886;4.700;2022-11-20T17:31:49;10.80;99.90
8994;DHT22;4532;50.886;4.700;2022-11-20T17:34:19;10.70;99.90
8994;DHT22;4532;50.886;4.700;2022-11-20T17:36:48;10.70;99.90
8994;DHT22;4532;50.886;4.700;2022-11-20T17:39:16;10.60;99.90
8994;DHT22;4532;50.886;4.700;2022-11-20T17:41:46;10.60;99.90
8994;DHT22;4532;50.886;4.700;2022-11-20T17:44:33;10.60;99.90
8994;DHT22;4532;50.886;4.700;2022-11-20T17:47:06;10.60;99.90
8994;DHT22;4532;50.886;4.700;2022-11-20T17:49:34;10.60;99.90
8994;DHT22;4532;50.886;4.700;2022-11-20T17:52:03;10.50;99.90
8994;DHT22;4532;50.886;4.700;2022-11-20T17:54:31;10.40;99.90
8994;DHT22;4532;50.886;4.700;2022-11-20T17:57:00;10.40;99.90
8994;DHT22;4532;50.886;4.700;2022-11-20T17:59:45;10.30;99.90
8994;DHT22;4532;50.886;4.700;2022-11-20T18:02:17;10.20;99.90
8994;DHT22;4532;50.886;4.700;2022-11-20T18:04:44;10.20;99.90
8994;DHT22;4532;50.886;4.700;2022-11-20T18:07:14;10.20;99.90
8994;DHT22;4532;50.886;4.700;2022-11-20T18:09:41;10.10;99.90
8994;DHT22;4532;50.886;4.700;2022-11-20T18:12:10;10.10;99.90
8994;DHT22;4532;50.886;4.700;2022-11-20T18:14:37;10.10;99.90
8994;DHT22;4532;50.886;4.700;2022-11-20T18:17:12;10.00;99.90
8994;DHT22;4532;50.886;4.700;2022-11-20T18:19:45;10.00;99.90
8994;DHT22;4532;50.886;4.700;2022-11-20T18:22:33;10.00;99.90
8994;DHT22;4532;50.886;4.700;2022-11-20T18:25:02;10.00;99.90
8994;DHT22;4532;50.886;4.700;2022-11-20T18:27:35;10.00;99.90
8994;DHT22;4532;50.886;4.700;2022-11-20T18:30:03;9.90;99.90
8994;DHT22;4532;50.886;4.700;2022-11-20T18:32:37;9.90;99.90
8994;DHT22;4532;50.886;4.700;2022-11-20T18:35:05;9.90;99.90
8994;DHT22;4532;50.886;4.700;2022-11-20T18:37:34;9.90;99.90
8994;DHT22;4532;50.886;4.700;2022-11-20T18:40:04;9.90;99.90